Time;durP1;ratioP1;P1;durP2;ratioP2;P2;SDS_P1;SDS_P2;PMS_P1;PMS_P2;Temp;Humidity;BMP_temperature;BMP_pressure;BME280_temperature;BME280_humidity;BME280_pressure;Samples;Min_cycle;Max_cycle;Signal;HPM_P1;HPM_P2
2021/08/29 00:02:24;;;;;;;6.03;2.58;;;;;;;22.99;46.59;101840.84;5056755;28;20051;-62
2021/08/29 00:04:49;;;;;;;9.77;2.15;;;;;;;22.94;45.68;101837.81;5056963;28;20079;-63
2021/08/29 00:07:14;;;;;;;8.85;1.90;;;;;;;22.95;46.44;101844.13;5056767;28;20086;-63
2021/08/29 00:09:40;;;;;;;3.33;1.75;;;;;;;22.95;45.58;101838.66;5055932;28;20025;-63
2021/08/29 00:12:06;;;;;;;4.07;2.38;;;;;;;22.93;45.73;101835.25;5057147;28;20047;-62
2021/08/29 00:14:31;;;;;;;8.18;2.72;;;;;;;22.91;45.86;101843.66;5056838;28;20044;-63
2021/08/29 00:16:57;;;;;;;3.55;1.85;;;;;;;22.91;46.70;101842.81;5056774;28;20049;-63
2021/08/29 00:19:22;;;;;;;5.07;2.13;;;;;;;22.86;46.74;101829.72;5057068;28;20120;-63
2021/08/29 00:21:47;;;;;;;7.22;3.22;;;;;;;22.90;45.81;101835.63;5057137;28;20032;-62
2021/08/29 00:24:13;;;;;;;6.95;2.15;;;;;;;22.87;46.84;101827.81;5056492;28;20033;-62
2021/08/29 00:26:38;;;;;;;10.82;2.47;;;;;;;22.87;46.54;101830.53;5056634;28;20040;-63
2021/08/29 00:29:04;;;;;;;3.30;2.13;;;;;;;22.82;46.20;101816.56;5038724;28;20083;-63
2021/08/29 00:31:29;;;;;;;6.10;3.45;;;;;;;22.88;47.10;101821.31;5056474;28;20048;-63
2021/08/29 00:33:55;;;;;;;7.47;2.45;;;;;;;22.89;46.71;101817.56;5056761;28;20094;-63
2021/08/29 00:36:20;;;;;;;6.78;2.40;;;;;;;22.89;46.17;101814.81;5055474;28;20035;-62
2021/08/29 00:38:45;;;;;;;5.10;2.05;;;;;;;22.90;47.00;101811.03;5056394;28;20033;-63
2021/08/29 00:41:11;;;;;;;3.83;2.70;;;;;;;22.88;46.87;101811.22;5056420;28;20067;-63
2021/08/29 00:43:38;;;;;;;6.03;2.28;;;;;;;22.90;47.25;101805.56;5056062;28;20511;-63
2021/08/29 00:46:05;;;;;;;6.88;2.45;;;;;;;22.90;46.19;101808.31;5055135;28;20029;-63
2021/08/29 00:48:31;;;;;;;4.15;2.00;;;;;;;22.88;46.61;101793.97;5055447;28;20107;-63
2021/08/29 00:50:56;;;;;;;5.47;2.53;;;;;;;22.90;46.19;101797.38;5037695;28;20029;-63
2021/08/29 00:53:21;;;;;;;4.15;2.63;;;;;;;22.90;47.24;101791.91;5055945;28;20047;-63
2021/08/29 00:55:48;;;;;;;2.88;1.98;;;;;;;22.91;47.32;101793.63;5054569;28;20123;-62
2021/08/29 00:58:13;;;;;;;9.77;1.95;;;;;;;22.84;46.59;101784.44;5055828;28;20424;-63
2021/08/29 01:00:43;;;;;;;2.80;2.03;;;;;;;22.90;46.40;101800.09;5055478;28;20116;-64
2021/08/29 01:03:14;;;;;;;6.85;2.20;;;;;;;22.89;47.48;101793.78;5054395;28;20025;-63
2021/08/29 01:06:11;;;;;;;3.67;2.40;;;;;;;22.88;46.47;101793.97;5038406;28;20036;-63
2021/08/29 01:08:39;;;;;;;5.53;2.65;;;;;;;22.88;47.14;101796.72;5055935;28;20037;-63
2021/08/29 01:11:09;;;;;;;10.48;2.78;;;;;;;22.89;47.30;101801.97;5054821;28;20024;-63
2021/08/29 01:13:38;;;;;;;3.53;2.28;;;;;;;22.91;46.73;101799.09;5054681;28;20183;-63
2021/08/29 01:16:06;;;;;;;4.25;1.98;;;;;;;22.93;46.77;101791.53;5038317;28;20031;-63
2021/08/29 01:18:35;;;;;;;3.08;1.98;;;;;;;22.93;46.98;101788.81;5037502;28;20024;-63
2021/08/29 01:21:15;;;;;;;4.60;2.55;;;;;;;22.95;47.60;101797.66;5054529;28;20107;-63
2021/08/29 01:23:44;;;;;;;5.70;2.47;;;;;;;22.93;47.65;101789.66;5054129;28;20032;-63
2021/08/29 01:26:48;;;;;;;3.55;1.77;;;;;;;22.94;46.85;101798.72;5054205;28;20032;-63
2021/08/29 01:29:15;;;;;;;4.20;2.33;;;;;;;22.91;46.88;101790.88;5053888;28;20491;-63
2021/08/29 01:31:42;;;;;;;5.13;2.67;;;;;;;22.92;47.62;101792.59;5054379;28;20029;-63
2021/08/29 01:34:09;;;;;;;5.90;1.88;;;;;;;22.88;47.03;101783.06;5053828;28;20501;-63
2021/08/29 01:36:37;;;;;;;6.03;2.15;;;;;;;22.91;48.01;101790.88;5054100;28;20071;-63
2021/08/29 01:39:04;;;;;;;4.15;2.58;;;;;;;22.93;47.06;101791.53;5054112;28;20017;-63
2021/08/29 01:41:31;;;;;;;4.60;1.83;;;;;;;22.93;47.37;101788.81;5055525;28;20029;-63
2021/08/29 01:43:57;;;;;;;6.18;2.05;;;;;;;22.92;47.08;101789.84;5054330;28;20028;-63
2021/08/29 01:46:22;;;;;;;11.73;2.80;;;;;;;22.93;47.19;101791.53;5053689;28;20025;-63
2021/08/29 01:48:48;;;;;;;6.70;2.75;;;;;;;22.93;48.10;101780.59;5055040;28;20432;-63
2021/08/29 01:51:13;;;;;;;4.03;1.90;;;;;;;22.94;47.71;101787.78;5055066;28;20025;-63
2021/08/29 01:53:40;;;;;;;4.35;2.30;;;;;;;22.92;47.32;101785.22;5055004;28;20023;-63
2021/08/29 01:56:06;;;;;;;4.50;2.00;;;;;;;22.92;47.01;101796.16;5054986;28;20029;-63
2021/08/29 01:58:32;;;;;;;7.70;2.00;;;;;;;22.92;48.24;101789.84;5053609;28;20033;-63
2021/08/29 02:01:00;;;;;;;6.18;1.90;;;;;;;22.82;48.17;101778.31;5052180;28;20444;-63
2021/08/29 02:03:26;;;;;;;7.30;2.25;;;;;;;22.93;48.06;101791.53;5053729;28;20385;-62
2021/08/29 02:05:56;;;;;;;3.47;2.17;;;;;;;22.90;47.50;101794.63;5055122;28;20045;-63
2021/08/29 02:08:24;;;;;;;8.13;2.47;;;;;;;22.91;47.20;101788.16;5053561;28;20021;-62
2021/08/29 02:10:51;;;;;;;4.47;1.67;;;;;;;22.88;47.64;101783.91;5053459;28;20036;-63
2021/08/29 02:13:20;;;;;;;7.65;2.25;;;;;;;22.91;47.33;101785.41;5055074;28;20103;-63
2021/08/29 02:15:53;;;;;;;6.25;1.80;;;;;;;22.91;47.36;101785.41;5054555;28;20032;-63
2021/08/29 02:18:21;;;;;;;4.47;2.20;;;;;;;22.92;48.20;101784.41;5053511;28;20116;-63
2021/08/29 02:20:50;;;;;;;5.43;2.40;;;;;;;22.89;47.77;101780.13;5053191;28;20033;-63
2021/08/29 02:23:16;;;;;;;7.53;2.25;;;;;;;22.92;48.00;101784.41;5054201;28;20032;-63
2021/08/29 02:25:45;;;;;;;3.80;2.35;;;;;;;22.90;47.84;101775.50;5052855;28;20252;-63
2021/08/29 02:28:11;;;;;;;6.60;3.17;;;;;;;22.91;47.62;101782.69;5053675;28;20053;-63
2021/08/29 02:30:36;;;;;;;7.53;2.33;;;;;;;22.89;47.57;101785.59;5054042;28;20102;-63
2021/08/29 02:33:02;;;;;;;5.03;2.42;;;;;;;22.88;47.87;101783.06;5054653;28;20024;-63
2021/08/29 02:35:27;;;;;;;3.40;2.30;;;;;;;22.89;48.55;101788.31;5054243;28;20052;-63
2021/08/29 02:37:53;;;;;;;6.57;2.35;;;;;;;22.89;47.89;101787.50;5052802;28;20162;-63
2021/08/29 02:40:19;;;;;;;6.32;2.97;;;;;;;22.89;48.59;101793.78;5053326;28;20037;-63
2021/08/29 02:42:46;;;;;;;4.40;1.83;;;;;;;22.89;48.70;101792.97;5052651;28;20036;-62
2021/08/29 02:45:13;;;;;;;4.00;1.95;;;;;;;22.88;48.36;101788.53;5052803;28;20497;-63
2021/08/29 02:47:38;;;;;;;5.32;2.70;;;;;;;22.90;47.79;101786.44;5052600;28;20023;-63
2021/08/29 02:50:04;;;;;;;5.60;3.30;;;;;;;22.90;48.30;101778.25;5052851;28;20369;-62
2021/08/29 02:52:30;;;;;;;10.73;3.05;;;;;;;22.91;48.52;101793.63;5052629;28;20037;-62
2021/08/29 02:54:56;;;;;;;6.90;2.30;;;;;;;22.89;47.75;101792.97;5052510;28;20029;-62
2021/08/29 02:57:25;;;;;;;6.60;2.40;;;;;;;22.88;48.01;101792.09;5052963;28;20053;-62
2021/08/29 02:59:50;;;;;;;7.18;2.10;;;;;;;22.86;48.41;101787.88;5052476;28;20067;-62
2021/08/29 03:02:16;;;;;;;4.97;2.30;;;;;;;22.86;48.05;101787.88;5052185;28;20143;-63
2021/08/29 03:04:41;;;;;;;3.90;2.28;;;;;;;22.86;47.95;101774.19;5053551;28;20032;-62
2021/08/29 03:07:07;;;;;;;4.90;2.47;;;;;;;22.86;48.79;101774.19;5053791;28;20057;-63
2021/08/29 03:09:35;;;;;;;5.43;2.22;;;;;;;22.85;48.10;101777.97;5053443;28;20405;-62
2021/08/29 03:12:05;;;;;;;6.50;3.17;;;;;;;22.84;48.43;101776.25;5053510;28;20043;-62
2021/08/29 03:14:32;;;;;;;8.63;2.53;;;;;;;22.86;48.14;101776.94;5053654;28;20400;-62
2021/08/29 03:16:58;;;;;;;6.03;2.55;;;;;;;22.87;48.78;101775.88;5052416;28;20100;-62
2021/08/29 03:19:23;;;;;;;9.20;2.38;;;;;;;22.84;48.58;101782.56;5052447;28;20499;-63
2021/08/29 03:21:49;;;;;;;6.68;3.60;;;;;;;22.86;49.15;101779.66;5052394;28;20051;-63
2021/08/29 03:24:15;;;;;;;4.82;2.72;;;;;;;22.84;49.07;101776.25;5053614;28;20106;-63
2021/08/29 03:26:40;;;;;;;6.00;2.28;;;;;;;22.84;48.08;101776.25;5053569;28;20025;-63
2021/08/29 03:29:06;;;;;;;5.30;2.40;;;;;;;22.84;48.35;101770.78;5053619;28;20447;-63
2021/08/29 03:31:31;;;;;;;5.22;2.35;;;;;;;22.86;48.20;101780.53;5052631;28;20501;-62
2021/08/29 03:33:59;;;;;;;4.68;2.55;;;;;;;22.87;49.21;101775.88;5053335;28;20421;-63
2021/08/29 03:36:30;;;;;;;6.63;2.75;;;;;;;22.86;49.14;101774.19;5052524;28;20035;-63
2021/08/29 03:38:56;;;;;;;9.48;2.55;;;;;;;22.85;48.32;101769.75;5053764;28;20064;-63
2021/08/29 03:41:22;;;;;;;5.25;2.28;;;;;;;22.84;48.85;101770.78;5052226;28;20072;-63
2021/08/29 03:43:48;;;;;;;7.45;3.40;;;;;;;22.83;48.32;101767.22;5053666;28;20028;-63
2021/08/29 03:46:15;;;;;;;5.90;2.72;;;;;;;22.86;49.29;101774.19;5053437;28;20036;-63
2021/08/29 03:48:41;;;;;;;4.10;2.22;;;;;;;22.87;48.40;101759.47;5053141;28;20029;-63
2021/08/29 03:51:07;;;;;;;4.38;2.08;;;;;;;22.89;49.25;101762.91;5053533;28;20048;-63
2021/08/29 03:53:33;;;;;;;5.40;2.42;;;;;;;22.90;49.30;101753.66;5052228;28;20057;-62
2021/08/29 03:55:58;;;;;;;4.68;2.13;;;;;;;22.91;48.44;101766.28;5051960;28;20044;-62
2021/08/29 03:58:24;;;;;;;13.48;2.35;;;;;;;22.92;49.28;101759.81;5053309;28;20037;-62
2021/08/29 04:00:49;;;;;;;7.65;2.20;;;;;;;22.92;48.44;101765.25;5053008;28;20573;-63
2021/08/29 04:03:15;;;;;;;7.70;2.58;;;;;;;22.91;48.34;101756.22;5052907;28;20528;-62
2021/08/29 04:05:41;;;;;;;7.40;2.70;;;;;;;22.90;49.26;101759.97;5051732;28;20035;-63
2021/08/29 04:08:12;;;;;;;5.05;2.53;;;;;;;22.91;48.43;101760.81;5051758;28;20112;-63
2021/08/29 04:10:41;;;;;;;6.53;2.78;;;;;;;22.87;49.16;101752.13;5051707;28;20017;-62
2021/08/29 04:13:06;;;;;;;8.00;2.25;;;;;;;22.90;49.37;101759.13;5051578;28;20025;-63
2021/08/29 04:15:32;;;;;;;7.18;2.53;;;;;;;22.87;48.72;101757.59;5051603;28;20478;-62
2021/08/29 04:17:57;;;;;;;8.27;2.75;;;;;;;22.86;48.70;101755.06;5052694;28;20029;-62
2021/08/29 04:20:23;;;;;;;3.83;2.00;;;;;;;22.85;48.83;101761.56;5051979;28;20057;-63
2021/08/29 04:22:48;;;;;;;4.13;2.35;;;;;;;22.84;48.79;101757.97;5053064;28;20040;-62
2021/08/29 04:25:14;;;;;;;6.43;2.70;;;;;;;22.83;49.47;101753.56;5051634;28;20036;-63
2021/08/29 04:27:40;;;;;;;7.65;2.40;;;;;;;22.86;49.23;101755.06;5055840;28;20465;-62
2021/08/29 04:30:06;;;;;;;8.05;2.40;;;;;;;22.85;49.23;101758.81;5056684;28;20473;-63
2021/08/29 04:32:31;;;;;;;8.30;2.67;;;;;;;22.87;49.76;101748.56;5055085;28;20029;-62
2021/08/29 04:34:57;;;;;;;8.27;2.97;;;;;;;22.84;49.16;101738.00;5039137;28;20052;-62
2021/08/29 04:37:22;;;;;;;6.15;2.33;;;;;;;22.89;49.84;101741.03;5056780;28;20137;-67
2021/08/29 04:39:48;;;;;;;3.78;2.33;;;;;;;22.91;48.83;101749.88;5056497;28;20350;-62
2021/08/29 04:42:13;;;;;;;5.25;2.28;;;;;;;22.89;49.45;101741.88;5056484;28;20024;-63
2021/08/29 04:44:38;;;;;;;7.70;2.60;;;;;;;22.88;49.93;101734.72;5056442;28;20035;-62
2021/08/29 04:47:04;;;;;;;8.18;3.58;;;;;;;22.88;49.46;101745.66;5056385;28;20025;-63
2021/08/29 04:49:29;;;;;;;3.65;2.20;;;;;;;22.89;49.81;101744.59;5056249;28;20032;-63
2021/08/29 04:51:55;;;;;;;9.13;2.55;;;;;;;22.91;48.66;101749.88;5055926;28;20033;-63
2021/08/29 04:54:20;;;;;;;3.80;2.17;;;;;;;22.91;49.97;101744.44;5056187;28;20490;-63
2021/08/29 04:56:45;;;;;;;8.73;2.50;;;;;;;22.92;49.36;101746.13;5056279;28;20061;-63
2021/08/29 04:59:11;;;;;;;6.35;2.70;;;;;;;22.91;49.40;101745.28;5056383;28;20045;-63
2021/08/29 05:01:36;;;;;;;2.88;1.88;;;;;;;22.88;49.19;101740.19;5055830;28;20053;-63
2021/08/29 05:04:01;;;;;;;8.45;3.08;;;;;;;22.93;49.57;101748.66;5056001;28;20032;-63
2021/08/29 05:06:27;;;;;;;3.78;2.05;;;;;;;22.92;49.39;101741.50;5055618;28;20035;-63
2021/08/29 05:08:53;;;;;;;11.57;2.30;;;;;;;22.96;50.09;101753.75;5054851;28;20473;-63
2021/08/29 05:11:20;;;;;;;7.47;2.25;;;;;;;22.94;49.04;101741.31;5055527;28;20028;-63
2021/08/29 05:13:46;;;;;;;4.85;2.45;;;;;;;22.98;49.87;101745.34;5055774;28;20025;-62
2021/08/29 05:16:11;;;;;;;3.83;2.13;;;;;;;22.95;49.02;101740.25;5055788;28;20037;-63
2021/08/29 05:18:36;;;;;;;6.13;2.15;;;;;;;22.93;49.08;101748.66;5055637;28;20036;-63
2021/08/29 05:21:02;;;;;;;6.00;2.78;;;;;;;22.92;49.19;101743.41;5055987;28;20446;-63
2021/08/29 05:23:27;;;;;;;9.32;2.40;;;;;;;22.95;49.74;101749.31;5037441;28;20083;-63
2021/08/29 05:25:52;;;;;;;6.28;2.17;;;;;;;22.93;49.63;101743.19;5055341;28;20036;-63
2021/08/29 05:28:19;;;;;;;6.68;2.00;;;;;;;22.94;49.16;101744.91;5055493;28;20032;-63
2021/08/29 05:30:44;;;;;;;6.70;2.13;;;;;;;22.94;50.06;101746.78;5055779;28;20117;-62
2021/08/29 05:33:09;;;;;;;5.20;2.33;;;;;;;22.97;49.20;101751.88;5055475;28;20079;-62
2021/08/29 05:35:35;;;;;;;13.70;2.50;;;;;;;23.00;49.74;101749.59;5055703;28;20037;-63
2021/08/29 05:38:00;;;;;;;6.97;2.80;;;;;;;23.03;50.15;101746.50;5054951;28;20028;-63
2021/08/29 05:40:25;;;;;;;6.57;2.30;;;;;;;23.00;49.73;101743.31;5055286;28;20088;-63
2021/08/29 05:42:51;;;;;;;5.43;2.17;;;;;;;23.02;48.97;101736.63;5054339;28;20029;-62
2021/08/29 05:45:16;;;;;;;5.85;2.55;;;;;;;23.08;49.49;101751.41;5054008;28;20072;-63
2021/08/29 05:47:42;;;;;;;7.90;2.83;;;;;;;23.09;49.98;101751.22;5053831;28;20029;-63
2021/08/29 05:50:08;;;;;;;11.57;2.53;;;;;;;23.10;49.17;101752.06;5053601;28;20100;-63
2021/08/29 05:52:33;;;;;;;8.00;2.55;;;;;;;23.09;49.13;101744.88;5055020;28;20359;-63
2021/08/29 05:54:58;;;;;;;7.60;2.30;;;;;;;23.13;49.98;101751.69;5055193;28;20420;-62
2021/08/29 05:57:24;;;;;;;4.63;2.33;;;;;;;23.14;49.70;101745.19;5054787;28;20036;-62
2021/08/29 05:59:49;;;;;;;9.07;1.95;;;;;;;23.14;49.04;101750.66;5055469;28;20029;-63
2021/08/29 06:02:14;;;;;;;7.57;3.28;;;;;;;23.14;49.49;101745.19;5053262;28;20080;-63
2021/08/29 06:04:41;;;;;;;6.35;2.30;;;;;;;23.12;50.14;101747.25;5053324;28;20123;-62
2021/08/29 06:07:08;;;;;;;6.45;2.75;;;;;;;23.14;50.17;101750.66;5054903;28;20378;-63
2021/08/29 06:09:33;;;;;;;5.22;2.22;;;;;;;23.16;50.10;101754.06;5055541;28;20408;-62
2021/08/29 06:11:58;;;;;;;6.20;2.08;;;;;;;23.17;49.19;101753.03;5053328;28;20056;-63
2021/08/29 06:14:24;;;;;;;7.25;2.38;;;;;;;23.15;49.80;101749.59;5054403;28;20028;-63
2021/08/29 06:16:49;;;;;;;5.32;2.47;;;;;;;23.15;50.13;101755.94;5054950;28;20036;-63
2021/08/29 06:19:14;;;;;;;8.05;2.33;;;;;;;23.18;50.00;101754.69;5036406;28;20039;-63
2021/08/29 06:21:40;;;;;;;4.68;2.58;;;;;;;23.21;50.06;101751.59;5054269;28;20029;-62
2021/08/29 06:24:05;;;;;;;6.65;2.03;;;;;;;23.19;49.31;101748.22;5054234;28;20036;-63
2021/08/29 06:26:30;;;;;;;3.63;2.38;;;;;;;23.22;50.17;101753.31;5054378;28;20029;-63
2021/08/29 06:28:56;;;;;;;5.20;1.95;;;;;;;23.18;49.80;101743.75;5053634;28;20029;-63
2021/08/29 06:31:21;;;;;;;5.10;2.75;;;;;;;23.22;50.05;101747.84;5054293;28;20033;-63
2021/08/29 06:33:47;;;;;;;6.78;2.22;;;;;;;23.22;50.15;101747.84;5052762;28;20388;-62
2021/08/29 06:36:12;;;;;;;6.03;1.88;;;;;;;23.23;49.18;101744.03;5053001;28;20480;-63
2021/08/29 06:38:39;;;;;;;7.65;2.70;;;;;;;23.21;49.27;101735.19;5054106;28;20439;-63
2021/08/29 06:41:05;;;;;;;6.25;2.70;;;;;;;23.25;49.16;101736.53;5054393;28;20029;-62
2021/08/29 06:43:30;;;;;;;7.72;2.58;;;;;;;23.25;49.53;101731.06;5052659;28;20112;-63
2021/08/29 06:45:55;;;;;;;4.18;1.95;;;;;;;23.29;49.19;101732.34;5052679;28;20056;-63
2021/08/29 06:48:21;;;;;;;5.18;3.03;;;;;;;23.28;48.95;101733.41;5053152;28;20463;-63
2021/08/29 06:50:46;;;;;;;8.73;2.83;;;;;;;23.30;49.09;101739.53;5053376;28;20036;-63
2021/08/29 06:53:11;;;;;;;3.55;2.00;;;;;;;23.32;49.50;101731.97;5054346;28;20418;-62
2021/08/29 06:55:37;;;;;;;6.50;2.10;;;;;;;23.30;49.53;101731.31;5053025;28;20036;-63
2021/08/29 06:58:02;;;;;;;8.18;2.17;;;;;;;23.31;49.82;101734.91;5052146;28;20041;-63
2021/08/29 07:00:28;;;;;;;8.18;2.42;;;;;;;23.33;49.56;101733.69;5052563;28;20121;-63
2021/08/29 07:02:53;;;;;;;4.95;2.50;;;;;;;23.36;49.86;101726.97;5052407;28;20405;-63
2021/08/29 07:05:18;;;;;;;8.20;3.15;;;;;;;23.37;49.55;101729.50;5052647;28;20029;-62
2021/08/29 07:07:44;;;;;;;6.70;2.30;;;;;;;23.35;49.98;101726.13;5052920;28;20029;-62
2021/08/29 07:10:09;;;;;;;4.05;2.08;;;;;;;23.43;49.07;101734.25;5052668;28;20036;-63
2021/08/29 07:12:35;;;;;;;7.00;2.42;;;;;;;23.46;49.88;101733.88;5051395;28;20055;-63
2021/08/29 07:15:00;;;;;;;4.25;2.00;;;;;;;23.49;49.00;101728.03;5034976;28;20358;-63
2021/08/29 07:17:25;;;;;;;5.13;1.85;;;;;;;23.58;49.83;101740.56;5051538;28;20067;-63
2021/08/29 07:19:51;;;;;;;6.88;2.63;;;;;;;23.62;49.82;101730.91;5052599;28;20046;-63
2021/08/29 07:22:16;;;;;;;9.68;2.80;;;;;;;23.65;49.79;101746.09;5052624;28;20083;-63
2021/08/29 07:24:42;;;;;;;10.05;2.85;;;;;;;23.71;48.91;101737.13;5052629;28;20115;-63
2021/08/29 07:27:07;;;;;;;9.93;2.92;;;;;;;23.74;49.52;101729.38;5051338;28;20036;-63
2021/08/29 07:29:32;;;;;;;3.95;2.38;;;;;;;23.85;49.23;101736.22;5051264;28;20094;-62
2021/08/29 07:31:58;;;;;;;7.00;2.58;;;;;;;23.93;49.06;101735.25;5052819;28;20122;-63
2021/08/29 07:34:23;;;;;;;8.73;2.90;;;;;;;24.02;48.73;101736.81;5034759;28;20102;-63
2021/08/29 07:36:49;;;;;;;6.20;2.10;;;;;;;24.08;48.84;101727.84;5052205;28;20382;-63
2021/08/29 07:39:14;;;;;;;8.57;2.65;;;;;;;24.10;49.45;101723.03;5052076;28;20035;-62
2021/08/29 07:41:40;;;;;;;9.50;4.47;;;;;;;24.23;49.07;101732.22;5034379;28;20029;-63
2021/08/29 07:44:05;;;;;;;6.53;2.08;;;;;;;24.35;48.52;101727.06;5052576;28;20033;-63
2021/08/29 07:46:31;;;;;;;5.75;2.00;;;;;;;24.41;49.14;101720.81;5051377;28;20029;-63
2021/08/29 07:48:56;;;;;;;6.70;1.90;;;;;;;24.52;48.16;101725.75;5051548;28;20032;-63
2021/08/29 07:51:22;;;;;;;12.00;2.17;;;;;;;24.53;48.39;101716.50;5052290;28;20020;-63
2021/08/29 07:53:47;;;;;;;5.55;2.10;;;;;;;24.62;48.86;101728.97;5051526;28;20043;-63
2021/08/29 07:56:12;;;;;;;4.82;1.70;;;;;;;24.69;48.80;101721.66;5051209;28;20037;-63
2021/08/29 07:58:38;;;;;;;5.18;1.65;;;;;;;24.75;48.21;101720.88;5034439;28;20060;-63
2021/08/29 08:01:03;;;;;;;5.70;2.00;;;;;;;24.80;48.62;101721.16;5052284;28;20025;-63
2021/08/29 08:03:29;;;;;;;5.70;2.15;;;;;;;24.81;48.92;101725.59;5055593;28;20041;-63
2021/08/29 08:05:54;;;;;;;8.00;2.17;;;;;;;24.80;48.59;101718.41;5055907;28;20050;-63
2021/08/29 08:08:20;;;;;;;10.95;2.97;;;;;;;24.81;48.56;101720.13;5054570;28;20032;-63
2021/08/29 08:10:45;;;;;;;4.35;1.90;;;;;;;24.88;47.87;101726.47;5037859;28;20226;-63
2021/08/29 08:13:11;;;;;;;5.88;2.90;;;;;;;24.93;47.89;101722.28;5054441;28;20645;-62
2021/08/29 08:15:36;;;;;;;8.32;2.10;;;;;;;24.90;48.06;101724.38;5055615;28;20417;-63
2021/08/29 08:18:02;;;;;;;5.97;1.98;;;;;;;24.83;48.13;101723.50;5051687;28;20029;-63
2021/08/29 08:20:27;;;;;;;7.90;2.63;;;;;;;24.77;48.43;101734.38;5055973;28;20024;-63
2021/08/29 08:22:52;;;;;;;7.25;2.30;;;;;;;24.74;48.41;101723.81;5055711;28;20032;-63
2021/08/29 08:25:18;;;;;;;6.00;2.17;;;;;;;24.74;48.83;101730.13;5057199;28;20032;-63
2021/08/29 08:27:43;;;;;;;10.93;2.10;;;;;;;24.73;48.62;101739.44;5056775;28;20033;-62
2021/08/29 08:30:09;;;;;;;6.43;2.42;;;;;;;24.73;48.30;101739.44;5055553;28;20055;-63
2021/08/29 08:32:35;;;;;;;7.35;2.08;;;;;;;24.74;48.76;101740.25;5057038;28;20405;-62
2021/08/29 08:35:00;;;;;;;6.00;2.05;;;;;;;24.72;48.69;101743.19;5057642;28;20031;-65
2021/08/29 08:37:26;;;;;;;7.68;1.90;;;;;;;24.74;47.89;101741.09;5054697;28;20037;-62
2021/08/29 08:39:51;;;;;;;3.83;1.60;;;;;;;24.75;48.44;101740.06;5056456;28;20486;-62
2021/08/29 08:42:16;;;;;;;6.25;2.00;;;;;;;24.77;48.14;101732.47;5056703;28;20029;-64
2021/08/29 08:44:47;;;;;;;7.50;1.88;;;;;;;24.76;47.98;101729.94;5055261;28;20025;-62
2021/08/29 08:47:16;;;;;;;7.65;2.00;;;;;;;24.74;48.38;101719.16;5056764;28;20017;-62
2021/08/29 08:49:42;;;;;;;6.35;1.85;;;;;;;24.75;48.46;101720.03;5057125;28;20033;-62
2021/08/29 08:52:14;;;;;;;7.38;2.35;;;;;;;24.81;47.79;101731.06;5056498;28;20029;-62
2021/08/29 08:54:40;;;;;;;7.72;3.38;;;;;;;24.84;48.23;101738.91;5056749;28;20049;-62
2021/08/29 08:57:06;;;;;;;9.10;2.13;;;;;;;24.82;47.72;101732.75;5055069;28;20106;-62
2021/08/29 08:59:33;;;;;;;8.15;2.42;;;;;;;24.81;47.79;101725.59;5055186;28;20033;-62
2021/08/29 09:01:59;;;;;;;9.65;2.97;;;;;;;24.88;47.35;101726.47;5054859;28;20129;-62
2021/08/29 09:04:25;;;;;;;6.28;2.40;;;;;;;24.96;48.17;101721.91;5055646;28;20071;-62
2021/08/29 09:06:51;;;;;;;5.22;1.83;;;;;;;25.02;47.93;101730.13;5056313;28;20401;-62
2021/08/29 09:09:16;;;;;;;4.78;2.47;;;;;;;25.07;47.85;101713.09;5056363;28;20037;-63
2021/08/29 09:11:41;;;;;;;8.68;1.98;;;;;;;25.08;48.01;101715.63;5056650;28;20461;-62
2021/08/29 09:14:08;;;;;;;5.47;1.60;;;;;;;25.03;47.72;101707.16;5054642;28;20036;-63
2021/08/29 09:16:33;;;;;;;6.03;2.65;;;;;;;25.08;47.64;101712.88;5056487;28;20116;-62
2021/08/29 09:19:01;;;;;;;7.00;2.05;;;;;;;25.09;47.92;101714.59;5056780;28;20132;-63
2021/08/29 09:21:31;;;;;;;6.75;2.03;;;;;;;25.06;47.64;101711.41;5055491;28;20058;-62
2021/08/29 09:23:58;;;;;;;6.60;2.13;;;;;;;25.00;47.95;101718.53;5056381;28;20064;-62
2021/08/29 09:26:25;;;;;;;3.33;1.80;;;;;;;24.97;47.96;101720.81;5055264;28;20029;-62
2021/08/29 09:28:54;;;;;;;4.18;1.48;;;;;;;24.97;48.05;101712.59;5055800;28;20024;-62
2021/08/29 09:31:19;;;;;;;6.18;1.73;;;;;;;24.96;47.45;101714.50;5054716;28;20055;-62
2021/08/29 09:33:59;;;;;;;4.28;1.95;;;;;;;24.95;47.88;101723.78;5056133;28;20466;-62
2021/08/29 09:36:32;;;;;;;8.20;1.77;;;;;;;24.97;48.00;101720.81;5037654;28;20033;-62
2021/08/29 09:39:14;;;;;;;4.25;1.30;;;;;;;24.96;47.63;101724.63;5055588;28;20028;-62
2021/08/29 09:41:41;;;;;;;9.68;2.00;;;;;;;24.87;47.88;101724.75;5054820;28;20025;-63
2021/08/29 09:44:18;;;;;;;7.75;2.05;;;;;;;24.86;48.12;101734.06;5056063;28;20086;-62
2021/08/29 09:47:04;;;;;;;5.43;1.60;;;;;;;24.80;48.34;101734.00;5054681;28;20419;-63
2021/08/29 09:49:34;;;;;;;5.30;2.20;;;;;;;24.75;48.59;101733.72;5055955;28;20021;-62
2021/08/29 09:52:03;;;;;;;7.43;1.73;;;;;;;24.79;48.63;101727.66;5055633;28;20028;-62
2021/08/29 09:54:36;;;;;;;11.77;2.42;;;;;;;24.76;48.38;101725.28;5055912;28;20540;-62
2021/08/29 09:57:08;;;;;;;10.43;1.95;;;;;;;24.72;48.54;101729.50;5055105;28;20083;-62
2021/08/29 09:59:40;;;;;;;7.25;1.80;;;;;;;24.74;48.13;101723.81;5053161;28;20082;-62
2021/08/29 10:02:06;;;;;;;9.48;2.40;;;;;;;24.76;48.06;101719.00;5055019;28;20053;-63
2021/08/29 10:04:31;;;;;;;12.27;1.92;;;;;;;24.75;48.14;101718.13;5055448;28;20033;-62
2021/08/29 10:07:17;;;;;;;6.38;1.63;;;;;;;24.76;48.90;101714.31;5037297;28;20033;-62
2021/08/29 10:09:44;;;;;;;2.88;1.15;;;;;;;24.74;48.16;101716.44;5055702;28;20063;-62
2021/08/29 10:12:10;;;;;;;6.30;2.10;;;;;;;24.72;48.48;101721.28;5053907;28;20108;-62
2021/08/29 10:14:37;;;;;;;5.40;1.90;;;;;;;24.73;48.47;101717.50;5055240;28;20111;-62
2021/08/29 10:17:04;;;;;;;4.65;1.90;;;;;;;24.75;48.48;101704.44;5055319;28;20033;-62
2021/08/29 10:19:32;;;;;;;6.10;1.90;;;;;;;24.80;48.52;101706.59;5054752;28;20044;-63
2021/08/29 10:21:58;;;;;;;7.95;1.83;;;;;;;24.80;49.03;101707.44;5055042;28;20017;-63
2021/08/29 10:24:29;;;;;;;4.53;2.42;;;;;;;24.81;48.36;101711.03;5052566;28;20112;-62
2021/08/29 10:26:55;;;;;;;7.80;1.83;;;;;;;24.81;49.23;101703.66;5055071;28;20029;-62
2021/08/29 10:29:28;;;;;;;9.85;2.65;;;;;;;24.79;49.08;101705.75;5053613;28;20098;-62
2021/08/29 10:32:04;;;;;;;;;;;;;;;24.74;48.73;101702.72;5053779;28;20075;-62
2021/08/29 10:34:31;;;;;;;5.40;2.00;;;;;;;24.63;49.52;101705.16;5053115;28;19908;-62
2021/08/29 10:36:57;;;;;;;6.28;1.92;;;;;;;24.48;49.23;101699.81;5036459;28;20028;-62
2021/08/29 10:39:22;;;;;;;5.13;1.50;;;;;;;24.41;49.48;101711.75;5053461;28;20446;-62
2021/08/29 10:41:48;;;;;;;7.55;1.65;;;;;;;24.34;49.23;101711.69;5053119;28;20032;-62
2021/08/29 10:44:14;;;;;;;4.45;1.67;;;;;;;24.36;48.75;101715.09;5054085;28;20452;-62
2021/08/29 10:46:44;;;;;;;5.82;1.50;;;;;;;24.41;48.92;101707.13;5053787;28;20025;-62
2021/08/29 10:49:10;;;;;;;4.28;1.65;;;;;;;24.42;48.90;101707.97;5052878;28;20024;-62
2021/08/29 10:51:35;;;;;;;6.25;1.98;;;;;;;24.33;49.32;101685.34;5054398;28;20467;-62
2021/08/29 10:54:10;;;;;;;6.07;1.85;;;;;;;24.44;49.36;101698.50;5053889;28;20079;-62
2021/08/29 10:56:35;;;;;;;12.25;2.20;;;;;;;24.51;49.32;101707.59;5054241;28;20055;-62
2021/08/29 10:59:06;;;;;;;5.15;1.50;;;;;;;24.54;48.84;101712.69;5054292;28;20041;-62
2021/08/29 11:01:39;;;;;;;4.13;2.45;;;;;;;24.56;48.81;101701.53;5054033;28;20464;-62
2021/08/29 11:04:22;;;;;;;9.18;2.78;;;;;;;24.53;49.33;101700.06;5054070;28;20080;-62
2021/08/29 11:06:52;;;;;;;4.03;1.15;;;;;;;24.53;49.05;101705.53;5054274;28;20363;-62
2021/08/29 11:09:29;;;;;;;2.92;1.30;;;;;;;24.54;48.86;101696.25;5054044;28;20021;-62
2021/08/29 11:11:55;;;;;;;8.35;1.17;;;;;;;24.53;48.48;101697.31;5054120;28;20453;-62
2021/08/29 11:14:48;;;;;;;4.75;1.83;;;;;;;24.51;48.56;101685.69;5053008;28;20091;-62
2021/08/29 11:17:16;;;;;;;9.07;2.10;;;;;;;24.53;49.19;101689.09;5053758;28;20033;-62
2021/08/29 11:19:43;;;;;;;6.60;1.88;;;;;;;24.56;48.83;101683.22;5053532;28;20068;-62
2021/08/29 11:22:09;;;;;;;7.25;1.88;;;;;;;24.56;49.26;101679.63;5053407;28;20535;-62
2021/08/29 11:24:58;;;;;;;7.03;1.67;;;;;;;24.59;48.89;101681.97;5052152;28;20028;-62